createdAt,value
2017-03-29T00:00:37.978Z,74.22
2017-03-29T00:01:18.438Z,74.04
2017-03-29T00:01:58.939Z,74.22
2017-03-29T00:03:51.506Z,73.84
2017-03-29T00:04:31.972Z,74.61
2017-03-29T00:05:12.458Z,73.94
2017-03-29T00:05:52.895Z,73.84
2017-03-29T00:06:33.343Z,74.51
2017-03-29T00:07:13.774Z,74.51
2017-03-29T00:09:26.473Z,74.61
2017-03-29T00:10:07.030Z,74.51
2017-03-29T00:10:47.458Z,74.22
2017-03-29T00:11:27.939Z,74.7
2017-03-29T00:12:08.354Z,74.61
2017-03-29T00:12:48.797Z,74.7
2017-03-29T00:13:29.251Z,74.8
2017-03-29T00:14:09.701Z,74.8
2017-03-29T00:14:50.150Z,74.41
2017-03-29T00:15:30.593Z,74.8
2017-03-29T00:16:11.035Z,74.41
2017-03-29T00:16:51.483Z,74.7
2017-03-29T00:17:31.958Z,74.61
2017-03-29T00:18:12.387Z,74.7
2017-03-29T00:18:52.836Z,74.7
2017-03-29T00:19:33.279Z,74.41
2017-03-29T00:20:13.716Z,74.7
2017-03-29T00:20:54.110Z,74.9
2017-03-29T00:21:34.565Z,74.9
2017-03-29T00:23:22.041Z,75.18
2017-03-29T00:24:02.516Z,74.99
2017-03-29T00:24:42.986Z,75.09
2017-03-29T00:25:23.415Z,74.9
2017-03-29T00:26:03.899Z,74.9
2017-03-29T00:26:44.329Z,75.09
2017-03-29T00:27:24.797Z,74.9
2017-03-29T00:28:05.221Z,74.7
2017-03-29T00:28:45.704Z,74.9
2017-03-29T00:29:26.170Z,74.99
2017-03-29T00:30:06.620Z,74.8
2017-03-29T00:30:47.047Z,74.99
2017-03-29T00:31:27.485Z,74.8
2017-03-29T00:32:07.927Z,74.99
2017-03-29T00:32:48.350Z,74.8
2017-03-29T00:33:28.808Z,75.18
2017-03-29T00:34:09.261Z,75.27
2017-03-29T00:34:49.720Z,74.61
2017-03-29T00:35:30.140Z,74.41
2017-03-29T00:36:10.599Z,74.8
2017-03-29T00:36:51.043Z,75.09
2017-03-29T00:37:31.453Z,74.99
2017-03-29T00:38:11.919Z,75.18
2017-03-29T00:38:52.347Z,75.76
2017-03-29T00:39:32.794Z,75.56
2017-03-29T00:40:13.233Z,75.76
2017-03-29T00:40:53.693Z,75.47
2017-03-29T00:41:34.103Z,75.66
2017-03-29T00:42:14.561Z,75.27
2017-03-29T00:44:07.112Z,75.37
2017-03-29T00:44:47.586Z,75.27
2017-03-29T00:45:28.071Z,75.27
2017-03-29T00:46:08.523Z,75.27
2017-03-29T00:47:55.999Z,75.76
2017-03-29T00:48:36.439Z,75.85
2017-03-29T00:49:16.937Z,75.76
2017-03-29T00:49:57.426Z,75.95
2017-03-29T00:50:37.867Z,75.66
2017-03-29T00:52:25.327Z,75.56
2017-03-29T00:53:05.831Z,76.23
2017-03-29T00:53:46.277Z,75.85
2017-03-29T00:54:26.739Z,75.66
2017-03-29T00:55:07.165Z,75.95
2017-03-29T00:57:19.885Z,75.85
2017-03-29T00:58:00.366Z,76.1
2017-03-29T00:58:40.798Z,76.04
2017-03-29T00:59:21.297Z,76.33
2017-03-29T01:00:01.764Z,76.33
2017-03-29T01:00:42.189Z,76.14
2017-03-29T01:01:22.598Z,76.33
2017-03-29T01:03:10.086Z,76.42
2017-03-29T01:03:50.524Z,76.81
2017-03-29T01:04:30.938Z,76.48
2017-03-29T01:05:11.391Z,76.48
2017-03-29T01:05:51.876Z,76.42
2017-03-29T01:07:39.339Z,76.81
2017-03-29T01:08:19.826Z,76.62
2017-03-29T01:09:00.296Z,76.48
2017-03-29T01:09:40.742Z,77.06
2017-03-29T01:10:21.183Z,76.96
2017-03-29T01:11:01.640Z,76.96
2017-03-29T01:11:42.101Z,77.06
2017-03-29T01:13:34.686Z,76.96
2017-03-29T01:14:15.146Z,77.06
2017-03-29T01:14:55.632Z,77.15
2017-03-29T01:15:36.125Z,77.06
2017-03-29T01:16:16.574Z,76.96
2017-03-29T01:18:29.292Z,77.34
2017-03-29T01:19:09.723Z,77.06
2017-03-29T01:19:50.202Z,77.06
2017-03-29T01:20:30.643Z,77.06
2017-03-29T01:21:11.090Z,76.96
2017-03-29T01:21:51.557Z,77.15
2017-03-29T01:22:31.993Z,77.15
2017-03-29T01:23:12.444Z,77.25
2017-03-29T01:23:52.920Z,77.34
2017-03-29T01:24:33.351Z,77.72
2017-03-29T01:25:13.887Z,77.15
2017-03-29T01:25:54.333Z,77.15
2017-03-29T01:26:34.751Z,77.72
2017-03-29T01:27:15.248Z,77.06
2017-03-29T01:29:07.776Z,77.25
2017-03-29T01:29:48.223Z,77.34
2017-03-29T01:30:28.696Z,77.63
2017-03-29T01:31:09.207Z,77.82
2017-03-29T01:31:49.635Z,77.82
2017-03-29T01:32:30.108Z,77.72
2017-03-29T01:33:10.515Z,77.82
2017-03-29T01:33:50.989Z,77.82
2017-03-29T01:34:31.451Z,78.11
2017-03-29T01:35:11.894Z,77.72
2017-03-29T01:37:04.445Z,77.82
2017-03-29T01:37:44.883Z,77.87
2017-03-29T01:38:25.331Z,77.87
2017-03-29T01:39:05.742Z,78.01
2017-03-29T01:39:46.195Z,77.92
2017-03-29T01:42:03.998Z,77.82
2017-03-29T01:42:44.458Z,77.59
2017-03-29T01:43:24.928Z,77.78
2017-03-29T01:44:05.390Z,77.72
2017-03-29T01:44:45.853Z,78.26
2017-03-29T01:45:26.320Z,77.82
2017-03-29T01:46:06.756Z,77.78
2017-03-29T01:46:47.172Z,78.26
2017-03-29T01:47:27.613Z,77.97
2017-03-29T01:48:08.055Z,78.26
2017-03-29T01:50:20.721Z,77.59
2017-03-29T01:51:01.181Z,77.59
2017-03-29T01:51:41.645Z,77.97
2017-03-29T01:52:22.093Z,78.16
2017-03-29T01:53:02.557Z,78.07
2017-03-29T01:53:43.015Z,78.36
2017-03-29T01:54:23.426Z,78.07
2017-03-29T01:55:03.884Z,78.36
2017-03-29T01:55:44.314Z,78.26
2017-03-29T01:56:24.724Z,77.97
2017-03-29T01:57:05.199Z,77.97
2017-03-29T01:57:45.672Z,78.26
2017-03-29T01:58:26.097Z,78.07
2017-03-29T01:59:06.529Z,78.64
2017-03-29T01:59:46.979Z,78.36
2017-03-29T02:00:27.407Z,78.45
2017-03-29T02:01:07.854Z,78.64
2017-03-29T02:01:48.297Z,78.64
2017-03-29T02:02:28.764Z,78.55
2017-03-29T02:03:09.217Z,78.45
2017-03-29T02:03:49.621Z,78.83
2017-03-29T02:04:30.087Z,78.45
2017-03-29T02:05:10.561Z,78.45
2017-03-29T02:05:50.995Z,78.55
2017-03-29T02:06:31.479Z,78.36
2017-03-29T02:07:11.930Z,79.41
2017-03-29T02:07:52.389Z,79.02
2017-03-29T02:08:32.844Z,78.93
2017-03-29T02:09:13.293Z,79.12
2017-03-29T02:09:53.786Z,79.12
2017-03-29T02:10:34.197Z,79.22
2017-03-29T02:11:14.665Z,79.31
2017-03-29T02:11:55.082Z,79.22
2017-03-29T02:14:07.779Z,79.6
2017-03-29T02:14:48.260Z,79.65
2017-03-29T02:15:28.737Z,79.85
2017-03-29T02:16:09.201Z,80.04
2017-03-29T02:16:49.625Z,79.94
2017-03-29T02:17:30.064Z,79.98
2017-03-29T02:18:10.519Z,79.65
2017-03-29T02:18:50.949Z,80.04
2017-03-29T02:19:31.365Z,79.56
2017-03-29T02:20:11.780Z,80.41
2017-03-29T02:20:52.245Z,80.41
2017-03-29T02:21:32.686Z,80.61
2017-03-29T02:22:13.088Z,80.22
2017-03-29T02:22:53.555Z,80.32
2017-03-29T02:23:34.035Z,80.13
2017-03-29T02:24:14.444Z,80.22
2017-03-29T02:24:54.898Z,80.32
2017-03-29T02:25:35.363Z,80.7
2017-03-29T02:26:15.832Z,80.9
2017-03-29T02:26:56.269Z,80.8
2017-03-29T02:27:36.702Z,80.8
2017-03-29T02:28:17.167Z,80.61
2017-03-29T02:28:57.601Z,80.8
2017-03-29T02:29:38.086Z,81.47
2017-03-29T02:30:18.494Z,81.37
2017-03-29T02:30:58.961Z,81.37
2017-03-29T02:31:39.423Z,81.37
2017-03-29T02:32:19.872Z,81.18
2017-03-29T02:34:37.681Z,81.47
2017-03-29T02:35:18.161Z,81.66
2017-03-29T02:35:58.613Z,81.76
2017-03-29T02:36:39.053Z,81.56
2017-03-29T02:37:19.519Z,81.66
2017-03-29T02:37:59.988Z,81.76
2017-03-29T02:38:40.402Z,82.04
2017-03-29T02:39:20.828Z,81.85
2017-03-29T02:41:38.641Z,82.14
2017-03-29T02:42:19.085Z,82.14
2017-03-29T02:42:59.542Z,82.23
2017-03-29T02:43:40.001Z,82.04
2017-03-29T02:44:20.417Z,82.32
2017-03-29T02:45:00.917Z,82.23
2017-03-29T02:45:41.331Z,82.23
2017-03-29T02:46:21.772Z,82.23
2017-03-29T02:47:02.203Z,81.95
2017-03-29T02:47:42.621Z,82.71
2017-03-29T02:48:23.087Z,82.61
2017-03-29T02:50:40.950Z,82.81
2017-03-29T02:51:21.363Z,82.52
2017-03-29T02:52:01.826Z,82.61
2017-03-29T02:52:42.233Z,82.9
2017-03-29T02:53:22.689Z,82.81
2017-03-29T02:54:03.134Z,82.61
2017-03-29T02:54:43.678Z,82.52
2017-03-29T02:55:24.135Z,82.71
2017-03-29T02:56:04.604Z,82.81
2017-03-29T02:56:45.041Z,82.81
2017-03-29T02:57:25.502Z,82.71
2017-03-29T02:59:12.995Z,83.28
2017-03-29T02:59:53.426Z,83.09
2017-03-29T03:00:33.884Z,82.71
2017-03-29T03:01:14.369Z,83.47
2017-03-29T03:01:54.825Z,83.14
2017-03-29T03:02:35.278Z,83.09
2017-03-29T03:03:15.745Z,83.53
2017-03-29T03:03:56.182Z,83.72
2017-03-29T03:05:53.873Z,83.81
2017-03-29T03:06:34.284Z,83.72
2017-03-29T03:07:14.736Z,83.53
2017-03-29T03:07:55.218Z,84.2
2017-03-29T03:08:35.667Z,84.39
2017-03-29T03:09:16.112Z,84.29
2017-03-29T03:09:56.556Z,84.1
2017-03-29T03:10:37.005Z,84.58
2017-03-29T03:11:17.510Z,84.39
2017-03-29T03:11:57.956Z,84.48
2017-03-29T03:12:38.413Z,84.48
2017-03-29T03:13:18.863Z,84.86
2017-03-29T03:13:59.337Z,85.05
2017-03-29T03:14:39.778Z,84.77
2017-03-29T03:15:20.267Z,85.05
2017-03-29T03:16:00.722Z,85.25
2017-03-29T03:16:41.164Z,85.15
2017-03-29T03:17:21.591Z,85.05
2017-03-29T03:18:02.077Z,85.15
2017-03-29T03:18:42.506Z,85.44
2017-03-29T03:19:22.937Z,85.82
2017-03-29T03:20:03.391Z,85.72
2017-03-29T03:20:43.830Z,85.82
2017-03-29T03:21:24.256Z,85.72
2017-03-29T03:22:04.729Z,85.72
2017-03-29T03:22:45.184Z,85.82
2017-03-29T03:23:25.637Z,85.82
2017-03-29T03:24:06.095Z,85.63
2017-03-29T03:24:46.546Z,86.01
2017-03-29T03:25:26.965Z,85.44
2017-03-29T03:26:07.417Z,85.53
2017-03-29T03:26:47.865Z,85.53
2017-03-29T03:28:35.318Z,85.82
2017-03-29T03:29:15.790Z,85.91
2017-03-29T03:29:56.246Z,86.01
2017-03-29T03:30:36.682Z,85.44
2017-03-29T03:31:17.131Z,86.01
2017-03-29T03:33:29.821Z,86.2
2017-03-29T03:34:10.240Z,86.39
2017-03-29T03:34:50.699Z,86.49
2017-03-29T03:35:31.175Z,86.39
2017-03-29T03:36:11.620Z,86.49
2017-03-29T03:36:52.060Z,86.68
2017-03-29T03:37:32.545Z,86.68
2017-03-29T03:38:12.987Z,86.92
2017-03-29T03:38:53.459Z,87.4
2017-03-29T03:41:11.289Z,86.87
2017-03-29T03:41:51.706Z,86.87
2017-03-29T03:42:32.116Z,86.87
2017-03-29T03:43:12.550Z,87.3
2017-03-29T03:43:52.958Z,87.59
2017-03-29T03:46:10.819Z,87.59
2017-03-29T03:46:51.259Z,87.49
2017-03-29T03:47:31.743Z,87.97
2017-03-29T03:48:12.225Z,87.97
2017-03-29T03:48:52.688Z,87.87
2017-03-29T03:49:33.169Z,88.07
2017-03-29T03:50:13.563Z,88.07
2017-03-29T03:50:54.040Z,87.97
2017-03-29T03:51:34.494Z,87.97
2017-03-29T03:52:14.930Z,87.87
2017-03-29T03:52:55.349Z,87.97
2017-03-29T03:54:47.896Z,87.87
2017-03-29T03:55:28.325Z,88.64
2017-03-29T03:56:08.827Z,88.64
2017-03-29T03:56:49.269Z,88.73
2017-03-29T03:57:29.681Z,88.83
2017-03-29T03:58:10.108Z,88.83
2017-03-29T03:58:50.553Z,89.21
2017-03-29T03:59:30.998Z,89.4
2017-03-29T04:00:11.435Z,89.21
2017-03-29T04:00:51.872Z,89.12
2017-03-29T04:01:32.324Z,89.59
2017-03-29T04:03:24.858Z,89.31
2017-03-29T04:04:05.327Z,89.69
2017-03-29T04:04:45.778Z,89.5
2017-03-29T04:05:26.211Z,89.88
2017-03-29T04:06:06.643Z,89.78
2017-03-29T04:08:04.268Z,90.22
2017-03-29T04:08:44.770Z,90.31
2017-03-29T04:09:25.251Z,90.41
2017-03-29T04:10:05.670Z,90.12
2017-03-29T04:11:53.139Z,90.79
2017-03-29T04:12:33.603Z,90.69
2017-03-29T04:13:14.047Z,90.22
2017-03-29T04:13:54.524Z,90.59
2017-03-29T04:14:34.952Z,90.59
2017-03-29T04:15:15.435Z,90.36
2017-03-29T04:15:55.891Z,90.73
2017-03-29T04:16:36.322Z,90.79
2017-03-29T04:17:16.790Z,90.79
2017-03-29T04:17:57.237Z,90.69
2017-03-29T04:18:37.708Z,90.59
2017-03-29T04:19:18.171Z,91.07
2017-03-29T04:19:58.634Z,91.36
2017-03-29T04:20:39.132Z,90.59
2017-03-29T04:21:19.550Z,91.27
2017-03-29T04:21:59.997Z,91.36
2017-03-29T04:22:40.430Z,91.17
2017-03-29T04:23:20.843Z,91.31
2017-03-29T04:24:01.314Z,91.27
2017-03-29T04:24:41.740Z,91.07
2017-03-29T04:25:22.159Z,91.17
2017-03-29T04:26:02.595Z,91.36
2017-03-29T04:26:43.027Z,91.64
2017-03-29T04:27:23.504Z,91.55
2017-03-29T04:28:03.954Z,91.46
2017-03-29T04:28:44.437Z,91.83
2017-03-29T04:29:24.927Z,91.27
2017-03-29T04:31:22.543Z,91.74
2017-03-29T04:32:02.984Z,91.27
2017-03-29T04:32:43.428Z,91.27
2017-03-29T04:33:23.950Z,91.46
2017-03-29T04:34:04.377Z,91.64
2017-03-29T04:34:44.835Z,91.17
2017-03-29T04:35:25.285Z,91.46
2017-03-29T04:36:05.742Z,91.36
2017-03-29T04:36:46.360Z,91.27
2017-03-29T04:37:26.853Z,91.27
2017-03-29T04:38:07.287Z,91.46
2017-03-29T04:38:47.744Z,91.55
2017-03-29T04:39:28.223Z,91.17
2017-03-29T04:40:08.706Z,91.83
2017-03-29T04:40:49.198Z,92.03
2017-03-29T04:41:29.672Z,91.83
2017-03-29T04:42:10.082Z,91.93
2017-03-29T04:42:50.529Z,92.03
2017-03-29T04:43:30.978Z,92.03
2017-03-29T04:44:11.404Z,91.83
2017-03-29T04:44:51.854Z,92.22
2017-03-29T04:45:32.317Z,92.03
2017-03-29T04:46:12.738Z,91.83
2017-03-29T04:46:53.213Z,91.64
2017-03-29T04:47:33.680Z,91.93
2017-03-29T04:48:14.127Z,91.74
2017-03-29T04:48:54.538Z,91.64
2017-03-29T04:49:35.014Z,92.03
2017-03-29T04:50:15.460Z,91.93
2017-03-29T04:50:55.928Z,91.74
2017-03-29T04:51:36.365Z,91.64
2017-03-29T04:53:23.854Z,91.93
2017-03-29T04:54:04.282Z,92.12
2017-03-29T04:54:44.730Z,90.98
2017-03-29T04:55:25.237Z,91.83
2017-03-29T04:56:05.665Z,91.98
2017-03-29T04:56:46.109Z,92.03
2017-03-29T04:57:26.526Z,92.22
2017-03-29T04:58:06.944Z,92.03
2017-03-29T04:58:47.392Z,92.12
2017-03-29T04:59:27.824Z,91.55
2017-03-29T05:00:08.294Z,91.74
2017-03-29T05:00:48.777Z,92.22
2017-03-29T05:01:29.253Z,92.03
2017-03-29T05:02:09.709Z,91.98
2017-03-29T05:02:50.132Z,91.93
2017-03-29T05:04:37.594Z,91.74
2017-03-29T05:05:18.035Z,91.55
2017-03-29T05:05:58.493Z,91.64
2017-03-29T05:06:38.968Z,91.93
2017-03-29T05:07:19.442Z,91.83
2017-03-29T05:07:59.918Z,91.83
2017-03-29T05:09:57.512Z,91.83
2017-03-29T05:10:38.011Z,91.55
2017-03-29T05:11:18.477Z,91.83
2017-03-29T05:11:58.931Z,91.88
2017-03-29T05:12:39.356Z,91.83
2017-03-29T05:13:19.792Z,92.26
2017-03-29T05:14:00.219Z,91.83
2017-03-29T05:14:40.635Z,91.64
2017-03-29T05:15:21.125Z,91.83
2017-03-29T05:16:01.565Z,91.64
2017-03-29T05:16:41.995Z,91.74
2017-03-29T05:17:22.468Z,92.03
2017-03-29T05:18:02.891Z,91.83
2017-03-29T05:18:43.341Z,91.83
2017-03-29T05:19:23.782Z,92.12
2017-03-29T05:20:04.210Z,91.98
2017-03-29T05:20:44.646Z,91.83
2017-03-29T05:21:25.106Z,92.03
2017-03-29T05:22:05.548Z,92.03
2017-03-29T05:22:45.996Z,91.93
2017-03-29T05:23:26.468Z,91.88
2017-03-29T05:24:06.922Z,91.83
2017-03-29T05:24:47.353Z,91.6
2017-03-29T05:25:27.764Z,91.74
2017-03-29T05:26:08.225Z,91.93
2017-03-29T05:26:48.689Z,91.98
2017-03-29T05:28:41.250Z,91.88
2017-03-29T05:29:21.738Z,91.88
2017-03-29T05:30:02.254Z,91.64
2017-03-29T05:30:42.689Z,91.78
2017-03-29T05:31:23.153Z,91.78
2017-03-29T05:33:20.741Z,91.78
2017-03-29T05:34:01.209Z,92.07
2017-03-29T05:34:41.696Z,92.07
2017-03-29T05:35:22.166Z,91.98
2017-03-29T05:36:02.636Z,92.17
2017-03-29T05:37:50.110Z,91.98
2017-03-29T05:38:30.561Z,91.88
2017-03-29T05:39:11.022Z,91.88
2017-03-29T05:39:51.536Z,92.07
2017-03-29T05:40:32.006Z,91.88
2017-03-29T05:41:12.500Z,91.69
2017-03-29T05:43:10.135Z,91.69
2017-03-29T05:43:50.618Z,91.31
2017-03-29T05:44:31.054Z,91.21
2017-03-29T05:45:11.534Z,91.31
2017-03-29T05:45:51.971Z,91.21
2017-03-29T05:48:04.649Z,90.83
2017-03-29T05:48:45.078Z,91.12
2017-03-29T05:49:25.548Z,91.12
2017-03-29T05:50:06.007Z,90.93
2017-03-29T05:50:46.431Z,91.12
2017-03-29T05:51:26.916Z,91.31
2017-03-29T05:52:08.015Z,90.73
2017-03-29T05:54:20.685Z,89.92
2017-03-29T05:55:01.178Z,89.25
2017-03-29T05:55:41.726Z,89.16
2017-03-29T05:56:22.220Z,89.06
2017-03-29T05:57:02.706Z,88.78
2017-03-29T05:57:43.212Z,88.4
2017-03-29T05:58:23.696Z,87.82
2017-03-29T05:59:04.182Z,87.82
2017-03-29T05:59:44.655Z,87.48
2017-03-29T06:00:25.140Z,87.1
2017-03-29T06:01:05.590Z,86.91
2017-03-29T06:01:46.067Z,87.29
2017-03-29T06:02:26.546Z,87.39
2017-03-29T06:03:06.981Z,86.91
2017-03-29T06:04:59.531Z,86.15
2017-03-29T06:05:40.014Z,86.24
2017-03-29T06:06:20.501Z,85.38
2017-03-29T06:07:00.943Z,85.29
2017-03-29T06:07:41.522Z,84.62
2017-03-29T06:08:21.998Z,85.1
2017-03-29T06:10:39.850Z,83.13
2017-03-29T06:11:20.331Z,83.13
2017-03-29T06:12:00.791Z,82.22
2017-03-29T06:12:41.295Z,82.37
2017-03-29T06:13:21.747Z,82.7
2017-03-29T06:14:02.221Z,82.56
2017-03-29T06:14:42.670Z,82.37
2017-03-29T06:15:23.155Z,82.75
2017-03-29T06:16:03.590Z,82.56
2017-03-29T06:16:44.094Z,82.08
2017-03-29T06:17:24.549Z,83.04
2017-03-29T06:18:04.984Z,82.84
2017-03-29T06:18:45.414Z,83.23
2017-03-29T06:19:25.882Z,83.95
2017-03-29T06:20:06.311Z,84.19
2017-03-29T06:20:46.777Z,84.38
2017-03-29T06:21:27.198Z,84.09
2017-03-29T06:22:07.648Z,83.95
2017-03-29T06:22:48.102Z,84.72
2017-03-29T06:23:28.555Z,84.66
2017-03-29T06:24:09.034Z,84.62
2017-03-29T06:26:06.743Z,85.19
2017-03-29T06:26:47.259Z,84.62
2017-03-29T06:27:27.778Z,84.62
2017-03-29T06:28:08.261Z,84.43
2017-03-29T06:28:48.757Z,84.85
2017-03-29T06:29:29.244Z,84.72
2017-03-29T06:30:09.731Z,84.85
2017-03-29T06:30:50.227Z,84.28
2017-03-29T06:31:30.681Z,83.9
2017-03-29T06:32:11.212Z,84.47
2017-03-29T06:32:51.760Z,83.99
2017-03-29T06:33:32.212Z,83.7
2017-03-29T06:34:12.659Z,83.8
2017-03-29T06:34:53.120Z,83.99
2017-03-29T06:35:33.551Z,83.86
2017-03-29T06:36:13.990Z,84.14
2017-03-29T06:36:54.442Z,84.05
2017-03-29T06:39:12.226Z,84.19
2017-03-29T06:39:52.710Z,84.09
2017-03-29T06:40:33.194Z,84.05
2017-03-29T06:41:13.707Z,83.8
2017-03-29T06:41:54.250Z,83.9
2017-03-29T06:42:34.689Z,83.8
2017-03-29T06:43:15.178Z,83.9
2017-03-29T06:43:55.669Z,83.9
2017-03-29T06:44:36.135Z,84.09
2017-03-29T06:45:16.585Z,83.8
2017-03-29T06:45:57.044Z,83.42
2017-03-29T06:46:37.489Z,83.8
2017-03-29T06:47:17.966Z,83.7
2017-03-29T06:47:58.445Z,83.7
2017-03-29T06:48:38.906Z,83.8
2017-03-29T06:49:19.342Z,83.23
2017-03-29T06:49:59.802Z,83.8
2017-03-29T06:50:40.220Z,83.7
2017-03-29T06:51:20.701Z,83.13
2017-03-29T06:52:01.164Z,83.23
2017-03-29T06:52:41.651Z,83.13
2017-03-29T06:53:22.203Z,83.13
2017-03-29T06:54:02.637Z,82.84
2017-03-29T06:55:55.194Z,83.33
2017-03-29T06:56:35.767Z,83.13
2017-03-29T06:57:16.287Z,82.94
2017-03-29T06:57:57.041Z,83.04
2017-03-29T06:58:37.678Z,82.65
2017-03-29T06:59:18.124Z,82.65
2017-03-29T06:59:58.735Z,82.94
2017-03-29T07:00:39.307Z,83.23
2017-03-29T07:01:19.755Z,82.65
2017-03-29T07:02:00.251Z,82.46
2017-03-29T07:02:41.214Z,82.46
2017-03-29T07:03:21.825Z,82.41
2017-03-29T07:04:02.393Z,81.45
2017-03-29T07:04:43.023Z,81.07
2017-03-29T07:05:23.711Z,80.02
2017-03-29T07:06:04.247Z,79.49
2017-03-29T07:06:44.789Z,78.81
2017-03-29T07:07:25.297Z,77.42
2017-03-29T07:08:05.807Z,76.84
2017-03-29T07:08:46.337Z,75.73
2017-03-29T07:09:26.870Z,75.12
2017-03-29T07:10:07.365Z,75.35
2017-03-29T07:10:47.818Z,74.3
2017-03-29T07:11:28.306Z,74.01
2017-03-29T07:12:08.821Z,73.44
2017-03-29T07:14:21.567Z,71.37
2017-03-29T07:15:02.063Z,71.08
2017-03-29T07:15:42.528Z,70.98
2017-03-29T07:16:23.067Z,71.08
2017-03-29T07:17:03.555Z,70.7
2017-03-29T07:17:44.065Z,71.17
2017-03-29T07:18:24.569Z,70.98
2017-03-29T07:19:05.014Z,70.7
2017-03-29T07:19:45.465Z,70.35
2017-03-29T07:20:25.987Z,69.96
2017-03-29T07:21:06.444Z,70.06
2017-03-29T07:21:46.856Z,69.48
2017-03-29T07:22:27.341Z,69.39
2017-03-29T07:23:07.922Z,69.48
2017-03-29T07:23:48.321Z,67.79
2017-03-29T07:24:28.792Z,67.6
2017-03-29T07:25:09.215Z,67.41
2017-03-29T07:25:49.654Z,67.02
2017-03-29T07:26:30.087Z,66.58
2017-03-29T07:27:10.521Z,65.91
2017-03-29T07:27:50.983Z,65.97
2017-03-29T07:28:31.447Z,66.19
2017-03-29T07:29:11.868Z,66.26
2017-03-29T07:29:52.315Z,66
2017-03-29T07:30:32.860Z,65.78
2017-03-29T07:31:13.282Z,64.95
2017-03-29T07:31:53.728Z,65.14
2017-03-29T07:32:34.207Z,64.95
2017-03-29T07:33:14.736Z,64.56
2017-03-29T07:33:55.202Z,64.95
2017-03-29T07:34:35.657Z,64.09
2017-03-29T07:35:16.125Z,64.47
2017-03-29T07:35:56.597Z,63.89
2017-03-29T07:37:54.271Z,65.33
2017-03-29T07:38:34.724Z,64.85
2017-03-29T07:39:15.169Z,65.14
2017-03-29T07:39:55.631Z,63.73
2017-03-29T07:42:13.453Z,62.29
2017-03-29T07:42:53.923Z,62.19
2017-03-29T07:43:34.404Z,61.84
2017-03-29T07:44:14.953Z,60.69
2017-03-29T07:44:55.408Z,60.21
2017-03-29T07:45:35.864Z,60.88
2017-03-29T07:46:16.315Z,61.81
2017-03-29T07:46:56.766Z,62.39
2017-03-29T07:47:37.219Z,61.55
2017-03-29T07:48:17.689Z,60.72
2017-03-29T07:48:58.129Z,59.47
2017-03-29T07:49:38.550Z,59.86
2017-03-29T07:50:18.979Z,59.19
2017-03-29T07:50:59.437Z,59.09
2017-03-29T07:51:39.912Z,59.09
2017-03-29T07:52:20.334Z,59.19
2017-03-29T07:53:00.810Z,59.09
2017-03-29T07:54:48.293Z,57.13
2017-03-29T07:55:28.783Z,56.71
2017-03-29T07:57:46.605Z,55.49
2017-03-29T07:58:27.109Z,55.49
2017-03-29T07:59:07.617Z,57.55
2017-03-29T07:59:48.023Z,58.61
2017-03-29T08:00:28.509Z,57.77
2017-03-29T08:01:09.044Z,57.68
2017-03-29T08:01:49.465Z,57.48
2017-03-29T08:02:30.680Z,57.58
2017-03-29T08:03:11.107Z,56.45
2017-03-29T08:06:32.000Z,57.32
2017-03-29T08:07:12.494Z,57.39
2017-03-29T08:07:52.963Z,56.45
2017-03-29T08:08:33.456Z,54.3
2017-03-29T08:09:13.971Z,52.13
2017-03-29T08:09:54.554Z,52.11
2017-03-29T08:10:35.125Z,51.36
2017-03-29T08:11:15.670Z,51.89
2017-03-29T08:11:56.128Z,53.69
2017-03-29T08:13:43.640Z,53.5
2017-03-29T08:14:24.099Z,53.62
2017-03-29T08:15:04.613Z,51.94
2017-03-29T08:15:45.027Z,51.92
2017-03-29T08:16:25.492Z,51.79
2017-03-29T08:17:05.944Z,52.66
2017-03-29T08:19:03.559Z,53.5
2017-03-29T08:19:44.039Z,53.5
2017-03-29T08:20:24.509Z,52.08
2017-03-29T08:21:05.005Z,52.37
2017-03-29T08:21:45.506Z,51.82
2017-03-29T08:22:26.038Z,52.01
2017-03-29T08:23:06.521Z,50.59
2017-03-29T08:24:59.223Z,53.14
2017-03-29T08:25:39.636Z,51.92
2017-03-29T08:26:20.090Z,51.86
2017-03-29T08:28:37.952Z,52.95
2017-03-29T08:29:18.434Z,52.08
2017-03-29T08:29:58.928Z,52.08
2017-03-29T08:30:39.462Z,52.66
2017-03-29T08:31:19.939Z,52.11
2017-03-29T08:32:00.429Z,52.75
2017-03-29T08:32:40.904Z,52.18
2017-03-29T08:33:21.341Z,52.85
2017-03-29T08:34:01.800Z,52.11
2017-03-29T08:34:42.299Z,50.98
2017-03-29T08:38:07.240Z,51.12
2017-03-29T08:38:47.655Z,50.66
2017-03-29T08:39:28.149Z,51.98
2017-03-29T08:41:15.643Z,49.65
2017-03-29T08:41:56.103Z,47.85
2017-03-29T08:42:36.564Z,47.55
2017-03-29T08:44:29.201Z,46.81
2017-03-29T08:45:09.641Z,45.94
2017-03-29T08:45:50.127Z,46.51
2017-03-29T08:46:30.571Z,45.48
2017-03-29T08:47:11.014Z,44.8
2017-03-29T08:47:51.460Z,46.03
2017-03-29T08:48:31.914Z,47.36
2017-03-29T08:49:12.385Z,46.2
2017-03-29T08:49:52.830Z,46.88
2017-03-29T08:52:10.656Z,45.18
2017-03-29T08:52:51.171Z,43.88
2017-03-29T08:53:31.602Z,43.93
2017-03-29T08:54:12.062Z,44.68
2017-03-29T08:54:52.533Z,44.22
2017-03-29T08:55:33.022Z,42.79
2017-03-29T08:57:20.590Z,43.84
2017-03-29T08:58:01.046Z,45.62
2017-03-29T08:58:41.628Z,47.7
2017-03-29T08:59:23.557Z,49.84
2017-03-29T09:00:04.075Z,50.45
2017-03-29T09:00:44.522Z,51.02
2017-03-29T09:01:24.983Z,50.27
2017-03-29T09:03:37.718Z,49.99
2017-03-29T09:04:18.246Z,49.24
2017-03-29T09:04:58.740Z,49.15
2017-03-29T09:05:39.282Z,47.99
2017-03-29T09:06:19.828Z,48.95
2017-03-29T09:07:00.327Z,51.41
2017-03-29T09:07:40.814Z,51.53
2017-03-29T09:08:21.230Z,50.88
2017-03-29T09:09:01.688Z,50.01
2017-03-29T09:09:42.190Z,49.17
2017-03-29T09:10:22.684Z,47.55
2017-03-29T09:11:03.222Z,47.07
2017-03-29T09:11:43.739Z,46.9
2017-03-29T09:12:24.169Z,48.86
2017-03-29T09:13:04.653Z,50.27
2017-03-29T09:13:45.106Z,50.3
2017-03-29T09:14:25.550Z,50.37
2017-03-29T09:15:05.992Z,50.47
2017-03-29T09:16:58.569Z,52.15
2017-03-29T09:17:39.105Z,52.66
2017-03-29T09:18:19.707Z,51.43
2017-03-29T09:19:00.206Z,51.6
2017-03-29T09:19:40.687Z,51.53
2017-03-29T09:20:21.210Z,50.95
2017-03-29T09:21:01.637Z,50.18
2017-03-29T09:21:42.097Z,52.15
2017-03-29T09:22:22.540Z,52.56
2017-03-29T09:23:03.003Z,50.95
2017-03-29T09:23:43.460Z,50.11
2017-03-29T09:24:23.941Z,50.18
2017-03-29T09:25:04.381Z,50.18
2017-03-29T09:25:44.841Z,51.93
2017-03-29T09:26:25.321Z,52.92
2017-03-29T09:27:05.807Z,51.7
2017-03-29T09:27:46.316Z,50.21
2017-03-29T09:29:38.901Z,51.89
2017-03-29T09:30:19.379Z,52.08
2017-03-29T09:30:59.857Z,50.11
2017-03-29T09:31:40.321Z,48.95
2017-03-29T09:32:20.832Z,49.15
2017-03-29T09:33:01.316Z,48.3
2017-03-29T09:33:41.793Z,49.87
2017-03-29T09:34:22.244Z,50.57
2017-03-29T09:35:02.734Z,50.18
2017-03-29T09:35:43.229Z,51.12
2017-03-29T09:37:40.949Z,52.56
2017-03-29T09:38:21.402Z,50.37
2017-03-29T09:39:01.817Z,49.89
2017-03-29T09:39:42.289Z,48.95
2017-03-29T09:40:22.729Z,47.53
2017-03-29T09:41:03.177Z,47.72
2017-03-29T09:41:43.713Z,47.51
2017-03-29T09:42:24.210Z,47.41
2017-03-29T09:43:04.719Z,48.44
2017-03-29T09:43:45.179Z,47.89
2017-03-29T09:44:25.686Z,49.58
2017-03-29T09:45:06.145Z,49.89
2017-03-29T09:45:47.370Z,49.6
2017-03-29T09:46:27.823Z,48.57
2017-03-29T09:47:08.308Z,47.51
2017-03-29T09:47:48.784Z,47.05
2017-03-29T09:48:29.253Z,46.95
2017-03-29T09:49:09.770Z,49.96
2017-03-29T09:49:50.227Z,51.89
2017-03-29T09:50:30.667Z,50.47
2017-03-29T09:51:11.098Z,51.98
2017-03-29T09:51:51.531Z,50.63
2017-03-29T09:52:31.982Z,50.11
2017-03-29T09:53:12.426Z,49.12
2017-03-29T09:55:04.988Z,47.27
2017-03-29T09:55:45.443Z,47.14
2017-03-29T09:56:26.040Z,46.86
2017-03-29T09:57:06.514Z,47.05
2017-03-29T09:57:46.982Z,45.75
2017-03-29T09:58:28.438Z,45.17
2017-03-29T09:59:08.898Z,43.57
2017-03-29T09:59:49.375Z,42.52
2017-03-29T10:00:29.819Z,43.81
2017-03-29T10:01:10.281Z,43.62
2017-03-29T10:01:50.838Z,44.87
2017-03-29T10:02:31.370Z,44.97
2017-03-29T10:03:11.793Z,43.85
2017-03-29T10:03:52.236Z,42.89
2017-03-29T10:04:32.720Z,42.62
2017-03-29T10:05:13.185Z,42.31
2017-03-29T10:05:53.620Z,43.06
2017-03-29T10:07:41.101Z,42.35
2017-03-29T10:08:21.574Z,40.73
2017-03-29T10:09:02.068Z,40.32
2017-03-29T10:09:42.550Z,41.09
2017-03-29T10:10:23.004Z,40.13
2017-03-29T10:11:03.514Z,39.84
2017-03-29T10:11:43.980Z,42.66
2017-03-29T10:12:24.521Z,44.95